Greenfield, Missouri
Current Conditions -  °F | °C
As of 8:52 PM on Saturday 20 Dec 2014 (Local Time) from KSGF Reporting Station
Overcast Overcast  
Wind Chill: 37°   Ceiling: 2200
Heat Index: 41°   Visibility: 10mi
Dew Point: 37°   Wind: 6mph
Humidity: 86%   Direction: 180°S
Pressure: 30.18"   Gusts: NA
Location:  37.42°N, 93.84°W
Report Text: KSGF 210252Z 18005KT 10SM OVC022 05/03 A3018 RMK AO2 SLP225 T00500028 51002
Loading
Personal Weather Stations






























Interactive Weather Map New forecast layout! Learn more

10-Day Weather Forecast

Advertisements
Track Severe Weather on mobile